sensor_id;sensor_type;location;lat;lon;timestamp;P1;durP1;ratioP1;P2;durP2;ratioP2
59986;SDS011;46181;51.498;5.392;2022-12-07T00:00:07;12.388;;;5.344001;;
59986;SDS011;46181;51.498;5.392;2022-12-07T00:04:36;9.747999;;;5.119999;;
59986;SDS011;46181;51.498;5.392;2022-12-07T00:09:06;8.355999;;;5.095999;;
59986;SDS011;46181;51.498;5.392;2022-12-07T00:13:36;7.787999;;;5.028;;
59986;SDS011;46181;51.498;5.392;2022-12-07T00:18:06;8.375999;;;5.02;;
59986;SDS011;46181;51.498;5.392;2022-12-07T00:22:36;9.407999;;;5.328001;;
59986;SDS011;46181;51.498;5.392;2022-12-07T00:27:06;8.16;;;4.96;;
59986;SDS011;46181;51.498;5.392;2022-12-07T00:31:36;9.119999;;;5.048;;
59986;SDS011;46181;51.498;5.392;2022-12-07T00:36:07;7.872;;;5.428001;;
59986;SDS011;46181;51.498;5.392;2022-12-07T00:40:36;8.336;;;4.956;;
59986;SDS011;46181;51.498;5.392;2022-12-07T00:45:07;9.744;;;5.516;;
59986;SDS011;46181;51.498;5.392;2022-12-07T00:49:36;10.468;;;5.372;;
59986;SDS011;46181;51.498;5.392;2022-12-07T00:54:06;10.368;;;5.035999;;
59986;SDS011;46181;51.498;5.392;2022-12-07T00:58:36;7.452;;;4.552;;
59986;SDS011;46181;51.498;5.392;2022-12-07T01:03:06;8.308002;;;4.904001;;
59986;SDS011;46181;51.498;5.392;2022-12-07T01:07:36;14.556;;;5.039999;;
59986;SDS011;46181;51.498;5.392;2022-12-07T01:12:06;6.304;;;4.788001;;
59986;SDS011;46181;51.498;5.392;2022-12-07T01:16:36;8.408001;;;4.972;;
59986;SDS011;46181;51.498;5.392;2022-12-07T01:21:06;7.316001;;;4.836;;
59986;SDS011;46181;51.498;5.392;2022-12-07T01:25:36;15.048;;;4.660001;;
59986;SDS011;46181;51.498;5.392;2022-12-07T01:30:06;9.403999;;;5.044;;
59986;SDS011;46181;51.498;5.392;2022-12-07T01:34:36;7.087999;;;5.168001;;
59986;SDS011;46181;51.498;5.392;2022-12-07T01:39:06;8.828;;;5.444;;
59986;SDS011;46181;51.498;5.392;2022-12-07T01:43:36;8.144001;;;5.224;;
59986;SDS011;46181;51.498;5.392;2022-12-07T01:48:06;10.368;;;5.231999;;
59986;SDS011;46181;51.498;5.392;2022-12-07T01:52:36;10.048;;;5.572;;
59986;SDS011;46181;51.498;5.392;2022-12-07T01:57:06;6.996;;;4.984;;
59986;SDS011;46181;51.498;5.392;2022-12-07T02:01:36;7.951999;;;4.988;;
59986;SDS011;46181;51.498;5.392;2022-12-07T02:06:06;7.412;;;5.052;;
59986;SDS011;46181;51.498;5.392;2022-12-07T02:10:36;10.052;;;5.456;;
59986;SDS011;46181;51.498;5.392;2022-12-07T02:15:06;8.311999;;;4.808001;;
59986;SDS011;46181;51.498;5.392;2022-12-07T02:24:19;9.808001;;;4.932;;
59986;SDS011;46181;51.498;5.392;2022-12-07T02:28:37;9.884;;;4.52;;
59986;SDS011;46181;51.498;5.392;2022-12-07T02:33:07;6.616001;;;4.643999;;
59986;SDS011;46181;51.498;5.392;2022-12-07T02:37:39;8.535999;;;4.5;;
59986;SDS011;46181;51.498;5.392;2022-12-07T02:42:07;8.696;;;4.639999;;
59986;SDS011;46181;51.498;5.392;2022-12-07T02:46:38;7.16;;;4.4;;
59986;SDS011;46181;51.498;5.392;2022-12-07T02:51:06;7.1;;;4.212;;
59986;SDS011;46181;51.498;5.392;2022-12-07T02:55:37;7.312;;;4.5;;
59986;SDS011;46181;51.498;5.392;2022-12-07T03:00:07;6.920001;;;4.107999;;
59986;SDS011;46181;51.498;5.392;2022-12-07T03:04:38;6.88;;;4.496;;
59986;SDS011;46181;51.498;5.392;2022-12-07T03:09:07;8.316;;;4.159999;;
59986;SDS011;46181;51.498;5.392;2022-12-07T03:13:37;8.340001;;;3.88;;
59986;SDS011;46181;51.498;5.392;2022-12-07T03:18:06;5.996;;;3.52;;
59986;SDS011;46181;51.498;5.392;2022-12-07T03:22:36;7.452;;;3.716001;;
59986;SDS011;46181;51.498;5.392;2022-12-07T03:27:06;5.232;;;3.684;;
59986;SDS011;46181;51.498;5.392;2022-12-07T03:31:36;8.02;;;3.848;;
59986;SDS011;46181;51.498;5.392;2022-12-07T03:36:06;5.08;;;3.488;;
59986;SDS011;46181;51.498;5.392;2022-12-07T03:40:37;9.191998;;;3.804;;
59986;SDS011;46181;51.498;5.392;2022-12-07T03:45:06;6.52;;;3.836;;
59986;SDS011;46181;51.498;5.392;2022-12-07T03:49:37;6.691999;;;4.016;;
59986;SDS011;46181;51.498;5.392;2022-12-07T03:54:07;6.915999;;;3.899999;;
59986;SDS011;46181;51.498;5.392;2022-12-07T03:58:36;8.040001;;;3.648;;
59986;SDS011;46181;51.498;5.392;2022-12-07T04:03:06;8.196;;;3.676001;;
59986;SDS011;46181;51.498;5.392;2022-12-07T04:07:36;6.207999;;;3.556;;
59986;SDS011;46181;51.498;5.392;2022-12-07T04:12:06;5.916002;;;3.8;;
59986;SDS011;46181;51.498;5.392;2022-12-07T04:16:36;6.823999;;;3.852001;;
59986;SDS011;46181;51.498;5.392;2022-12-07T04:21:06;8.072001;;;4.272001;;
59986;SDS011;46181;51.498;5.392;2022-12-07T04:25:36;5.348001;;;3.924001;;
59986;SDS011;46181;51.498;5.392;2022-12-07T04:30:07;7.556;;;4.38;;
59986;SDS011;46181;51.498;5.392;2022-12-07T04:34:36;6.272;;;4.023999;;
59986;SDS011;46181;51.498;5.392;2022-12-07T04:39:07;7.516;;;4.224;;
59986;SDS011;46181;51.498;5.392;2022-12-07T04:43:36;7.468001;;;4.168;;
59986;SDS011;46181;51.498;5.392;2022-12-07T04:48:06;7.276001;;;4.148;;
59986;SDS011;46181;51.498;5.392;2022-12-07T04:52:36;7.748001;;;4.36;;
59986;SDS011;46181;51.498;5.392;2022-12-07T04:57:06;7.247999;;;4.268;;
59986;SDS011;46181;51.498;5.392;2022-12-07T05:01:36;10.62;;;4.147999;;
59986;SDS011;46181;51.498;5.392;2022-12-07T05:06:06;8.003999;;;4.208;;
59986;SDS011;46181;51.498;5.392;2022-12-07T05:10:36;8.576;;;4.063999;;
59986;SDS011;46181;51.498;5.392;2022-12-07T05:15:06;9.748;;;4.184;;
59986;SDS011;46181;51.498;5.392;2022-12-07T05:19:36;11.1;;;4.508;;
59986;SDS011;46181;51.498;5.392;2022-12-07T05:24:07;6.104;;;3.596;;
59986;SDS011;46181;51.498;5.392;2022-12-07T05:28:36;6.823999;;;3.632;;
59986;SDS011;46181;51.498;5.392;2022-12-07T05:33:06;6.159999;;;3.54;;
59986;SDS011;46181;51.498;5.392;2022-12-07T05:37:36;6.484;;;3.66;;
59986;SDS011;46181;51.498;5.392;2022-12-07T05:42:06;8.364001;;;3.575999;;
59986;SDS011;46181;51.498;5.392;2022-12-07T05:46:36;9.116;;;3.344;;
59986;SDS011;46181;51.498;5.392;2022-12-07T05:51:06;7.968001;;;3.104;;
59986;SDS011;46181;51.498;5.392;2022-12-07T05:55:36;5.620001;;;3.212;;
59986;SDS011;46181;51.498;5.392;2022-12-07T06:00:07;7.648;;;3.436;;
59986;SDS011;46181;51.498;5.392;2022-12-07T06:04:36;4.972001;;;2.7;;
59986;SDS011;46181;51.498;5.392;2022-12-07T06:09:06;6.196001;;;3.108;;
59986;SDS011;46181;51.498;5.392;2022-12-07T06:13:36;7.296;;;2.772;;
59986;SDS011;46181;51.498;5.392;2022-12-07T06:18:06;6.452001;;;2.976;;
59986;SDS011;46181;51.498;5.392;2022-12-07T06:22:36;6.168001;;;2.8;;
59986;SDS011;46181;51.498;5.392;2022-12-07T06:27:06;5.980001;;;2.744;;
59986;SDS011;46181;51.498;5.392;2022-12-07T06:31:36;5.916;;;2.968;;
59986;SDS011;46181;51.498;5.392;2022-12-07T06:36:06;7.515999;;;3.188001;;
59986;SDS011;46181;51.498;5.392;2022-12-07T06:40:36;6.283999;;;3.1;;
59986;SDS011;46181;51.498;5.392;2022-12-07T06:45:07;6.52;;;2.984;;
59986;SDS011;46181;51.498;5.392;2022-12-07T06:49:36;7.044001;;;3.48;;
59986;SDS011;46181;51.498;5.392;2022-12-07T06:54:06;5.480001;;;2.652;;
59986;SDS011;46181;51.498;5.392;2022-12-07T06:58:36;7.064;;;3.228;;
59986;SDS011;46181;51.498;5.392;2022-12-07T07:03:06;8.304;;;3.592;;
59986;SDS011;46181;51.498;5.392;2022-12-07T07:07:36;5.120001;;;3.284;;
59986;SDS011;46181;51.498;5.392;2022-12-07T07:12:06;6.751999;;;3.264;;
59986;SDS011;46181;51.498;5.392;2022-12-07T07:16:36;8.452001;;;3.563999;;
59986;SDS011;46181;51.498;5.392;2022-12-07T07:21:06;6.176001;;;3.284;;
59986;SDS011;46181;51.498;5.392;2022-12-07T07:25:36;7.975999;;;3.496;;
59986;SDS011;46181;51.498;5.392;2022-12-07T07:30:07;6.964;;;3.267999;;
59986;SDS011;46181;51.498;5.392;2022-12-07T07:34:36;6.876;;;3.412;;
59986;SDS011;46181;51.498;5.392;2022-12-07T07:39:06;7.763999;;;3.828001;;
59986;SDS011;46181;51.498;5.392;2022-12-07T07:43:36;6.448;;;3.512;;
59986;SDS011;46181;51.498;5.392;2022-12-07T07:48:06;7.099999;;;3.515999;;
59986;SDS011;46181;51.498;5.392;2022-12-07T07:52:36;5.920001;;;3.260001;;
59986;SDS011;46181;51.498;5.392;2022-12-07T07:57:06;7.495999;;;3.424;;
59986;SDS011;46181;51.498;5.392;2022-12-07T08:01:36;5.840001;;;3.556;;
59986;SDS011;46181;51.498;5.392;2022-12-07T08:06:06;7.967999;;;3.88;;
59986;SDS011;46181;51.498;5.392;2022-12-07T08:10:36;9.136;;;3.611999;;
59986;SDS011;46181;51.498;5.392;2022-12-07T08:15:06;7.623999;;;3.468;;
59986;SDS011;46181;51.498;5.392;2022-12-07T08:19:36;6.856;;;3.632;;
59986;SDS011;46181;51.498;5.392;2022-12-07T08:24:06;6.324;;;3.356;;
59986;SDS011;46181;51.498;5.392;2022-12-07T08:28:36;9.18;;;3.712;;
59986;SDS011;46181;51.498;5.392;2022-12-07T08:33:06;7.872001;;;3.612;;
59986;SDS011;46181;51.498;5.392;2022-12-07T08:37:36;7.924001;;;4.276;;
59986;SDS011;46181;51.498;5.392;2022-12-07T08:42:06;10.004;;;4.191999;;
59986;SDS011;46181;51.498;5.392;2022-12-07T08:46:36;8.387999;;;4.032;;
59986;SDS011;46181;51.498;5.392;2022-12-07T08:51:06;7.412001;;;4.2;;
59986;SDS011;46181;51.498;5.392;2022-12-07T08:55:36;9.384;;;4.468;;
59986;SDS011;46181;51.498;5.392;2022-12-07T09:00:07;8.828001;;;4.115999;;
59986;SDS011;46181;51.498;5.392;2022-12-07T09:04:36;9.164001;;;4.056;;
59986;SDS011;46181;51.498;5.392;2022-12-07T09:09:06;8.676;;;4.028;;
59986;SDS011;46181;51.498;5.392;2022-12-07T09:13:36;8.319999;;;4.187999;;
59986;SDS011;46181;51.498;5.392;2022-12-07T09:18:06;8.344;;;3.932;;
59986;SDS011;46181;51.498;5.392;2022-12-07T09:22:36;8.091999;;;3.816;;
59986;SDS011;46181;51.498;5.392;2022-12-07T09:27:06;11.02;;;3.772001;;
59986;SDS011;46181;51.498;5.392;2022-12-07T09:31:36;9.360001;;;3.368;;
59986;SDS011;46181;51.498;5.392;2022-12-07T09:36:06;6.044;;;3.256;;
59986;SDS011;46181;51.498;5.392;2022-12-07T09:40:36;8.816;;;3.244;;
59986;SDS011;46181;51.498;5.392;2022-12-07T09:45:11;7.164;;;3.288;;
59986;SDS011;46181;51.498;5.392;2022-12-07T09:49:36;7.34;;;3.647999;;
59986;SDS011;46181;51.498;5.392;2022-12-07T09:54:07;7.104;;;4.064;;
59986;SDS011;46181;51.498;5.392;2022-12-07T09:58:36;7.811998;;;3.872;;
59986;SDS011;46181;51.498;5.392;2022-12-07T10:03:08;8.644;;;3.896001;;
59986;SDS011;46181;51.498;5.392;2022-12-07T10:07:36;12.324;;;6.375999;;
59986;SDS011;46181;51.498;5.392;2022-12-07T10:12:07;10.188;;;4.716;;
59986;SDS011;46181;51.498;5.392;2022-12-07T10:16:39;7.436;;;3.764;;
59986;SDS011;46181;51.498;5.392;2022-12-07T10:21:10;9.759998;;;4.54;;
59986;SDS011;46181;51.498;5.392;2022-12-07T10:25:36;8.383999;;;4.755999;;
59986;SDS011;46181;51.498;5.392;2022-12-07T10:30:07;6.256;;;3.68;;
59986;SDS011;46181;51.498;5.392;2022-12-07T10:34:37;6.688001;;;3.252;;
59986;SDS011;46181;51.498;5.392;2022-12-07T10:39:10;10.18;;;3.436;;
59986;SDS011;46181;51.498;5.392;2022-12-07T10:43:36;5.740001;;;2.836;;
59986;SDS011;46181;51.498;5.392;2022-12-07T10:48:08;7.376;;;3.168;;
59986;SDS011;46181;51.498;5.392;2022-12-07T10:52:50;8.508;;;3.132;;
59986;SDS011;46181;51.498;5.392;2022-12-07T10:57:14;7.976;;;3.424001;;
59986;SDS011;46181;51.498;5.392;2022-12-07T11:01:38;9.424001;;;3.508;;
59986;SDS011;46181;51.498;5.392;2022-12-07T11:06:10;4.964001;;;3.016;;
59986;SDS011;46181;51.498;5.392;2022-12-07T11:10:39;7.827999;;;3.264;;
59986;SDS011;46181;51.498;5.392;2022-12-07T11:15:08;8.78;;;2.548;;
59986;SDS011;46181;51.498;5.392;2022-12-07T11:19:39;5.123999;;;2.536;;
59986;SDS011;46181;51.498;5.392;2022-12-07T11:24:08;8.908;;;3.132;;
59986;SDS011;46181;51.498;5.392;2022-12-07T11:28:41;8.008;;;2.836;;
59986;SDS011;46181;51.498;5.392;2022-12-07T11:33:09;6.76;;;2.444;;
59986;SDS011;46181;51.498;5.392;2022-12-07T11:37:37;9.927999;;;2.62;;
59986;SDS011;46181;51.498;5.392;2022-12-07T11:42:09;7.136;;;2.599999;;
59986;SDS011;46181;51.498;5.392;2022-12-07T11:46:40;8.359999;;;2.576;;
59986;SDS011;46181;51.498;5.392;2022-12-07T11:51:07;6.428;;;1.736;;
59986;SDS011;46181;51.498;5.392;2022-12-07T11:55:39;4.848;;;1.844;;
59986;SDS011;46181;51.498;5.392;2022-12-07T12:00:12;5.376;;;2.348001;;
59986;SDS011;46181;51.498;5.392;2022-12-07T12:04:40;5.412;;;1.644;;
59986;SDS011;46181;51.498;5.392;2022-12-07T12:09:09;8.016002;;;2.024;;
59986;SDS011;46181;51.498;5.392;2022-12-07T12:18:13;5.42;;;1.724;;
59986;SDS011;46181;51.498;5.392;2022-12-07T12:22:38;5.476;;;1.564;;
59986;SDS011;46181;51.498;5.392;2022-12-07T12:27:07;3.776;;;1.424;;
59986;SDS011;46181;51.498;5.392;2022-12-07T12:31:40;4.924;;;1.5;;
59986;SDS011;46181;51.498;5.392;2022-12-07T12:36:20;3.396;;;1.324;;
59986;SDS011;46181;51.498;5.392;2022-12-07T12:40:44;2.552;;;1.196;;
59986;SDS011;46181;51.498;5.392;2022-12-07T12:49:40;5.812001;;;1.476;;
59986;SDS011;46181;51.498;5.392;2022-12-07T12:54:10;4.552;;;1.104;;
59986;SDS011;46181;51.498;5.392;2022-12-07T12:58:40;3.256;;;1.26;;
59986;SDS011;46181;51.498;5.392;2022-12-07T13:03:16;3.364;;;1.264;;
59986;SDS011;46181;51.498;5.392;2022-12-07T13:12:11;7.452002;;;1.156;;
59986;SDS011;46181;51.498;5.392;2022-12-07T13:16:40;3.544;;;1;;
59986;SDS011;46181;51.498;5.392;2022-12-07T13:21:39;4.584;;;1.428;;
59986;SDS011;46181;51.498;5.392;2022-12-07T13:25:41;5.82;;;1.432;;
59986;SDS011;46181;51.498;5.392;2022-12-07T13:30:11;3.488;;;1.296;;
59986;SDS011;46181;51.498;5.392;2022-12-07T13:34:37;3.58;;;1.524;;
59986;SDS011;46181;51.498;5.392;2022-12-07T13:39:21;8.356;;;1.86;;
59986;SDS011;46181;51.498;5.392;2022-12-07T13:43:46;8.196;;;2.244;;
59986;SDS011;46181;51.498;5.392;2022-12-07T13:48:08;7.3;;;1.736;;
59986;SDS011;46181;51.498;5.392;2022-12-07T13:52:42;6.5;;;1.524;;
59986;SDS011;46181;51.498;5.392;2022-12-07T13:57:06;4.092001;;;1.496;;
59986;SDS011;46181;51.498;5.392;2022-12-07T14:01:36;4.528;;;1.26;;
59986;SDS011;46181;51.498;5.392;2022-12-07T14:06:10;5.66;;;1.408;;
59986;SDS011;46181;51.498;5.392;2022-12-07T14:10:37;2.98;;;1.244;;
59986;SDS011;46181;51.498;5.392;2022-12-07T14:15:15;4.612;;;1.476;;
59986;SDS011;46181;51.498;5.392;2022-12-07T14:19:47;3.323999;;;1.18;;
59986;SDS011;46181;51.498;5.392;2022-12-07T14:24:11;3.192;;;1.276;;
59986;SDS011;46181;51.498;5.392;2022-12-07T14:28:36;4.012001;;;1.424;;
59986;SDS011;46181;51.498;5.392;2022-12-07T14:33:07;6.984001;;;1.724;;
59986;SDS011;46181;51.498;5.392;2022-12-07T14:37:37;3.896;;;1.36;;
59986;SDS011;46181;51.498;5.392;2022-12-07T14:42:07;3.788001;;;1.444;;
59986;SDS011;46181;51.498;5.392;2022-12-07T14:46:36;4.808;;;1.436;;
59986;SDS011;46181;51.498;5.392;2022-12-07T14:51:07;4.216;;;1.492;;
59986;SDS011;46181;51.498;5.392;2022-12-07T14:55:36;3.555999;;;1.724;;
59986;SDS011;46181;51.498;5.392;2022-12-07T15:00:08;3.62;;;1.436;;
59986;SDS011;46181;51.498;5.392;2022-12-07T15:04:36;9.076;;;3.548;;
59986;SDS011;46181;51.498;5.392;2022-12-07T15:09:06;4.528;;;2.084;;
59986;SDS011;46181;51.498;5.392;2022-12-07T15:13:36;4.120001;;;1.608;;
59986;SDS011;46181;51.498;5.392;2022-12-07T15:18:06;3.312001;;;1.648001;;
59986;SDS011;46181;51.498;5.392;2022-12-07T15:22:36;3.228;;;1.456;;
59986;SDS011;46181;51.498;5.392;2022-12-07T15:27:06;4.336;;;1.6;;
59986;SDS011;46181;51.498;5.392;2022-12-07T15:31:36;3.78;;;1.48;;
59986;SDS011;46181;51.498;5.392;2022-12-07T15:36:07;4.896001;;;1.724;;
59986;SDS011;46181;51.498;5.392;2022-12-07T15:40:36;5.028001;;;1.744;;
59986;SDS011;46181;51.498;5.392;2022-12-07T15:45:07;3.544;;;1.536;;
59986;SDS011;46181;51.498;5.392;2022-12-07T15:49:36;3.204;;;1.824;;
59986;SDS011;46181;51.498;5.392;2022-12-07T15:54:06;3.704;;;2.016;;
59986;SDS011;46181;51.498;5.392;2022-12-07T15:58:36;3.847999;;;1.704;;
59986;SDS011;46181;51.498;5.392;2022-12-07T16:03:06;3.496;;;1.696;;
59986;SDS011;46181;51.498;5.392;2022-12-07T16:07:36;4.299999;;;2.024;;
59986;SDS011;46181;51.498;5.392;2022-12-07T16:12:07;4.200001;;;1.9;;
59986;SDS011;46181;51.498;5.392;2022-12-07T16:16:36;5.684;;;1.976;;
59986;SDS011;46181;51.498;5.392;2022-12-07T16:21:06;4.172;;;1.816;;
59986;SDS011;46181;51.498;5.392;2022-12-07T16:25:36;3.596;;;1.904;;
59986;SDS011;46181;51.498;5.392;2022-12-07T16:30:07;3.772;;;2;;
59986;SDS011;46181;51.498;5.392;2022-12-07T16:34:36;3.324;;;1.864;;
59986;SDS011;46181;51.498;5.392;2022-12-07T16:39:06;4.043999;;;2.288;;
59986;SDS011;46181;51.498;5.392;2022-12-07T16:43:36;5.684;;;2.48;;
59986;SDS011;46181;51.498;5.392;2022-12-07T16:48:06;4.556;;;2.012;;
59986;SDS011;46181;51.498;5.392;2022-12-07T16:52:36;4.844;;;1.948;;
59986;SDS011;46181;51.498;5.392;2022-12-07T16:57:06;5.096;;;2.196001;;
59986;SDS011;46181;51.498;5.392;2022-12-07T17:01:36;5.672001;;;2.576;;
59986;SDS011;46181;51.498;5.392;2022-12-07T17:06:09;4.312;;;2.512;;
59986;SDS011;46181;51.498;5.392;2022-12-07T17:10:37;5.700001;;;2.424;;
59986;SDS011;46181;51.498;5.392;2022-12-07T17:15:07;3.632;;;1.724;;
59986;SDS011;46181;51.498;5.392;2022-12-07T17:19:36;3.996;;;1.768;;
59986;SDS011;46181;51.498;5.392;2022-12-07T17:24:08;2.924;;;1.8;;
59986;SDS011;46181;51.498;5.392;2022-12-07T17:28:36;4.4;;;1.92;;
59986;SDS011;46181;51.498;5.392;2022-12-07T17:33:06;4.283999;;;2.012;;
59986;SDS011;46181;51.498;5.392;2022-12-07T17:37:36;5.236001;;;2.156;;
59986;SDS011;46181;51.498;5.392;2022-12-07T17:42:07;6.052001;;;2.068;;
59986;SDS011;46181;51.498;5.392;2022-12-07T17:46:37;4.776;;;1.872;;
59986;SDS011;46181;51.498;5.392;2022-12-07T17:51:07;3.952001;;;2.052;;
59986;SDS011;46181;51.498;5.392;2022-12-07T17:55:36;3.808001;;;1.856;;
59986;SDS011;46181;51.498;5.392;2022-12-07T18:00:07;5.02;;;2.172001;;
59986;SDS011;46181;51.498;5.392;2022-12-07T18:04:36;4.784;;;2.22;;
59986;SDS011;46181;51.498;5.392;2022-12-07T18:09:06;5.78;;;2.168;;
59986;SDS011;46181;51.498;5.392;2022-12-07T18:13:36;12.724;;;4.784001;;
59986;SDS011;46181;51.498;5.392;2022-12-07T18:18:07;7.240001;;;2.639999;;
59986;SDS011;46181;51.498;5.392;2022-12-07T18:22:36;5.712001;;;2.536;;
59986;SDS011;46181;51.498;5.392;2022-12-07T18:27:06;4.024;;;2.3;;
59986;SDS011;46181;51.498;5.392;2022-12-07T18:31:36;5.264;;;2.268;;
59986;SDS011;46181;51.498;5.392;2022-12-07T18:36:07;6.384001;;;2.832;;
59986;SDS011;46181;51.498;5.392;2022-12-07T18:40:36;5.319999;;;2.696;;
59986;SDS011;46181;51.498;5.392;2022-12-07T18:45:07;5.644;;;2.404001;;
59986;SDS011;46181;51.498;5.392;2022-12-07T18:49:36;4.74;;;2.208;;
59986;SDS011;46181;51.498;5.392;2022-12-07T18:54:07;3.868;;;1.964;;
59986;SDS011;46181;51.498;5.392;2022-12-07T18:58:36;4.62;;;2.092;;
59986;SDS011;46181;51.498;5.392;2022-12-07T19:03:06;6.055999;;;2.472;;
59986;SDS011;46181;51.498;5.392;2022-12-07T19:07:36;5.46;;;2.836;;
59986;SDS011;46181;51.498;5.392;2022-12-07T19:12:08;7.88;;;2.096;;
59986;SDS011;46181;51.498;5.392;2022-12-07T19:16:37;3.336;;;2.024;;
59986;SDS011;46181;51.498;5.392;2022-12-07T19:21:07;5.787999;;;2.072;;
59986;SDS011;46181;51.498;5.392;2022-12-07T19:25:38;6.5;;;1.932;;
59986;SDS011;46181;51.498;5.392;2022-12-07T19:30:07;5.252;;;2.068;;
59986;SDS011;46181;51.498;5.392;2022-12-07T19:34:37;4.964;;;2.116;;
59986;SDS011;46181;51.498;5.392;2022-12-07T19:39:07;4.38;;;2.036;;
59986;SDS011;46181;51.498;5.392;2022-12-07T19:43:37;4.216;;;2.324;;
59986;SDS011;46181;51.498;5.392;2022-12-07T19:48:07;6.956;;;2.008;;
59986;SDS011;46181;51.498;5.392;2022-12-07T19:52:36;3.888;;;2.104;;
59986;SDS011;46181;51.498;5.392;2022-12-07T19:57:06;4.54;;;2.228;;
59986;SDS011;46181;51.498;5.392;2022-12-07T20:01:36;6.755999;;;2.544;;
59986;SDS011;46181;51.498;5.392;2022-12-07T20:06:10;6.120001;;;2.216;;
59986;SDS011;46181;51.498;5.392;2022-12-07T20:10:36;5.036001;;;1.8;;
59986;SDS011;46181;51.498;5.392;2022-12-07T20:15:07;6.32;;;2.116;;
59986;SDS011;46181;51.498;5.392;2022-12-07T20:19:38;5.716;;;2.112;;
59986;SDS011;46181;51.498;5.392;2022-12-07T20:24:08;5.116;;;1.788;;
59986;SDS011;46181;51.498;5.392;2022-12-07T20:28:37;4.408;;;1.616;;
59986;SDS011;46181;51.498;5.392;2022-12-07T20:33:06;5.815999;;;1.804;;
59986;SDS011;46181;51.498;5.392;2022-12-07T20:37:36;3.216;;;1.384;;
59986;SDS011;46181;51.498;5.392;2022-12-07T20:42:07;4.708;;;1.716;;
59986;SDS011;46181;51.498;5.392;2022-12-07T20:46:36;4.836;;;1.692;;
59986;SDS011;46181;51.498;5.392;2022-12-07T20:51:07;5.612;;;1.532;;
59986;SDS011;46181;51.498;5.392;2022-12-07T20:55:37;4.224;;;1.724;;
59986;SDS011;46181;51.498;5.392;2022-12-07T21:00:07;4.072001;;;1.576;;
59986;SDS011;46181;51.498;5.392;2022-12-07T21:04:37;5.964;;;1.624;;
59986;SDS011;46181;51.498;5.392;2022-12-07T21:09:08;4.364;;;1.488;;
59986;SDS011;46181;51.498;5.392;2022-12-07T21:13:37;3.643999;;;1.604;;
59986;SDS011;46181;51.498;5.392;2022-12-07T21:18:07;5.352001;;;1.772;;
59986;SDS011;46181;51.498;5.392;2022-12-07T21:22:36;3.784001;;;1.64;;
59986;SDS011;46181;51.498;5.392;2022-12-07T21:27:07;3.323999;;;1.692;;
59986;SDS011;46181;51.498;5.392;2022-12-07T21:31:37;5.636;;;1.88;;
59986;SDS011;46181;51.498;5.392;2022-12-07T21:36:07;3.228;;;1.44;;
59986;SDS011;46181;51.498;5.392;2022-12-07T21:40:37;5.664;;;1.768;;
59986;SDS011;46181;51.498;5.392;2022-12-07T21:45:07;4.508;;;1.512;;
59986;SDS011;46181;51.498;5.392;2022-12-07T21:49:37;4.556001;;;1.664;;
59986;SDS011;46181;51.498;5.392;2022-12-07T21:54:07;5.884;;;1.692;;
59986;SDS011;46181;51.498;5.392;2022-12-07T21:58:37;3.46;;;1.34;;
59986;SDS011;46181;51.498;5.392;2022-12-07T22:03:09;4.667999;;;1.512;;
59986;SDS011;46181;51.498;5.392;2022-12-07T22:07:37;3.095999;;;1.728;;
59986;SDS011;46181;51.498;5.392;2022-12-07T22:12:07;5.780001;;;2.308;;
59986;SDS011;46181;51.498;5.392;2022-12-07T22:16:37;4.848;;;2.704001;;
59986;SDS011;46181;51.498;5.392;2022-12-07T22:21:07;7.208001;;;3.688;;
59986;SDS011;46181;51.498;5.392;2022-12-07T22:25:37;5.984;;;3.951999;;
59986;SDS011;46181;51.498;5.392;2022-12-07T22:30:08;10.264;;;4.603999;;
59986;SDS011;46181;51.498;5.392;2022-12-07T22:34:37;9.100001;;;5.012;;
59986;SDS011;46181;51.498;5.392;2022-12-07T22:39:07;7.979999;;;4.924;;
59986;SDS011;46181;51.498;5.392;2022-12-07T22:43:37;8.999999;;;5.52;;
59986;SDS011;46181;51.498;5.392;2022-12-07T22:48:07;11.128;;;6.632;;
59986;SDS011;46181;51.498;5.392;2022-12-07T22:52:37;10.212;;;6.632;;
59986;SDS011;46181;51.498;5.392;2022-12-07T22:57:07;12.652;;;7.207999;;
59986;SDS011;46181;51.498;5.392;2022-12-07T23:01:37;11.372;;;7.980001;;
59986;SDS011;46181;51.498;5.392;2022-12-07T23:06:09;14.624;;;8.152;;
59986;SDS011;46181;51.498;5.392;2022-12-07T23:10:40;16.044;;;9.168;;
59986;SDS011;46181;51.498;5.392;2022-12-07T23:15:07;12.196;;;8.628;;
59986;SDS011;46181;51.498;5.392;2022-12-07T23:19:37;13.552;;;9.672;;
59986;SDS011;46181;51.498;5.392;2022-12-07T23:24:07;14.244;;;9.632;;
59986;SDS011;46181;51.498;5.392;2022-12-07T23:28:37;16.092;;;9.608001;;
59986;SDS011;46181;51.498;5.392;2022-12-07T23:33:07;16.148;;;9.476001;;
59986;SDS011;46181;51.498;5.392;2022-12-07T23:37:37;15.572;;;10.284;;
59986;SDS011;46181;51.498;5.392;2022-12-07T23:42:07;15.212;;;9.436001;;
59986;SDS011;46181;51.498;5.392;2022-12-07T23:46:37;15.76;;;9.863999;;
59986;SDS011;46181;51.498;5.392;2022-12-07T23:51:07;16.2;;;9.816;;
59986;SDS011;46181;51.498;5.392;2022-12-07T23:55:37;15.352;;;9.756;;
